Time;durP1;ratioP1;P1;durP2;ratioP2;P2;SDS_P1;SDS_P2;PMS_P1;PMS_P2;Temp;Humidity;BMP_temperature;BMP_pressure;BME280_temperature;BME280_humidity;BME280_pressure;Samples;Min_cycle;Max_cycle;Signal;HPM_P1;HPM_P2
2020/12/22 00:01:57;;;;;;;31.57;22.23;;;;;;;1.42;94.02;100282.09;1795303;78;25265;-78
2020/12/22 00:04:24;;;;;;;34.77;22.17;;;;;;;1.45;94.04;100276.36;1795831;79;25775;-78
2020/12/22 00:06:57;;;;;;;26.03;17.90;;;;;;;1.47;94.00;100286.27;1795786;79;25070;-77
2020/12/22 00:09:24;;;;;;;26.07;16.83;;;;;;;1.48;93.96;100284.05;1795857;79;25660;-78
2020/12/22 00:11:51;;;;;;;22.30;15.60;;;;;;;1.50;93.97;100281.88;1795722;79;25292;-78
2020/12/22 00:14:18;;;;;;;25.23;17.30;;;;;;;1.47;93.89;100290.15;1769114;79;25640;-78
2020/12/22 00:16:45;;;;;;;24.60;16.40;;;;;;;1.51;93.99;100286.14;1795586;78;25367;-77
2020/12/22 00:19:11;;;;;;;23.03;14.73;;;;;;;1.52;93.98;100283.97;1795776;79;25273;-79
2020/12/22 00:21:38;;;;;;;22.33;15.03;;;;;;;1.50;93.93;100281.88;1795790;78;25213;-77
2020/12/22 00:24:06;;;;;;;23.17;15.57;;;;;;;1.48;93.92;100280.62;1795761;78;25728;-76
2020/12/22 00:26:33;;;;;;;25.63;17.23;;;;;;;1.48;93.96;100277.57;1795722;78;25296;-77
2020/12/22 00:28:59;;;;;;;25.97;17.53;;;;;;;1.48;93.90;100276.73;1795817;78;25759;-77
2020/12/22 00:31:26;;;;;;;23.60;15.97;;;;;;;1.45;93.86;100276.36;1795729;78;25699;-77
2020/12/22 00:33:52;;;;;;;20.33;14.07;;;;;;;1.44;93.84;100263.44;1795730;78;25290;-77
2020/12/22 00:36:19;;;;;;;22.20;14.43;;;;;;;1.40;93.78;100250.19;1795624;78;25308;-77
2020/12/22 00:38:46;;;;;;;20.43;13.70;;;;;;;1.36;93.83;100253.32;1795744;78;25063;-77
2020/12/22 00:41:15;;;;;;;44.57;30.00;;;;;;;1.34;93.85;100236.97;1795769;78;25241;-77
2020/12/22 00:43:43;;;;;;;28.50;22.47;;;;;;;1.33;93.89;100235.72;1795804;78;25281;-77
2020/12/22 00:46:13;;;;;;;21.20;14.60;;;;;;;1.32;93.89;100240.48;1795681;78;25337;-77
2020/12/22 00:48:48;;;;;;;18.33;11.83;;;;;;;1.31;93.87;100233.17;1795744;78;25517;-77
2020/12/22 00:51:23;;;;;;;18.73;12.47;;;;;;;1.28;93.86;100237.98;1795708;78;25610;-77
2020/12/22 00:53:52;;;;;;;18.97;12.93;;;;;;;1.30;93.92;100241.83;1795840;78;25687;-78
2020/12/22 00:56:19;;;;;;;17.47;12.43;;;;;;;1.33;94.06;100230.08;1795751;78;25182;-77
2020/12/22 00:58:46;;;;;;;18.00;12.10;;;;;;;1.36;94.09;100228.70;1795706;79;25266;-77
2020/12/22 01:01:13;;;;;;;15.97;11.57;;;;;;;1.40;94.12;100228.99;1795528;79;25704;-77
2020/12/22 01:03:40;;;;;;;16.47;11.70;;;;;;;1.43;94.18;100219.83;1795777;79;25732;-77
2020/12/22 01:06:07;;;;;;;16.17;11.77;;;;;;;1.45;94.20;100214.14;1795689;79;25079;-77
2020/12/22 01:08:33;;;;;;;14.17;10.13;;;;;;;1.47;94.27;100221.45;1795764;78;25146;-77
2020/12/22 01:11:00;;;;;;;15.10;10.57;;;;;;;1.52;94.28;100230.81;1795671;79;25308;-76
2020/12/22 01:13:27;;;;;;;17.47;11.00;;;;;;;1.52;94.23;100223.87;1795467;78;25747;-77
2020/12/22 01:15:53;;;;;;;13.90;9.50;;;;;;;1.54;94.16;100222.53;1795706;78;25238;-76
2020/12/22 01:18:20;;;;;;;14.10;9.80;;;;;;;1.53;94.15;100222.16;1795626;79;25323;-76
2020/12/22 01:20:49;;;;;;;15.00;10.23;;;;;;;1.53;94.11;100219.11;1795859;79;25193;-77
2020/12/22 01:23:17;;;;;;;15.20;10.23;;;;;;;1.53;94.13;100217.81;1795711;78;25209;-77
2020/12/22 01:25:43;;;;;;;11.50;8.60;;;;;;;1.53;94.13;100211.79;1795774;78;25225;-76
2020/12/22 01:28:10;;;;;;;15.67;10.93;;;;;;;1.53;94.09;100215.67;1795834;78;25261;-77
2020/12/22 01:30:37;;;;;;;21.87;13.70;;;;;;;1.50;94.04;100208.83;1795798;79;25269;-77
2020/12/22 01:33:05;;;;;;;39.63;21.93;;;;;;;1.51;94.08;100204.48;1769185;78;25190;-77
2020/12/22 01:35:32;;;;;;;19.10;14.23;;;;;;;1.52;94.03;100199.70;1795817;78;25670;-77
2020/12/22 01:37:58;;;;;;;15.03;11.47;;;;;;;1.46;93.91;100202.89;1768754;79;25277;-77
2020/12/22 01:40:25;;;;;;;17.20;12.80;;;;;;;1.44;93.88;100198.63;1795572;78;25186;-77
2020/12/22 01:42:51;;;;;;;15.33;11.10;;;;;;;1.41;93.85;100202.64;1795547;78;25115;-77
2020/12/22 01:45:18;;;;;;;14.37;9.97;;;;;;;1.35;93.81;100185.52;1795641;78;25497;-77
2020/12/22 01:47:48;;;;;;;14.07;10.10;;;;;;;1.34;93.91;100183.84;1795951;78;25186;-78
2020/12/22 01:50:23;;;;;;;12.33;9.43;;;;;;;1.39;93.87;100170.72;1840568;76;26902;-76
2020/12/22 01:52:49;;;;;;;12.23;9.50;;;;;;;1.29;93.94;100180.52;1787598;80;25307;-77
2020/12/22 01:55:16;;;;;;;13.70;9.70;;;;;;;1.29;94.10;100171.44;1787506;79;25257;-77
2020/12/22 01:57:43;;;;;;;11.77;8.73;;;;;;;1.27;93.96;100162.87;1787577;79;25253;-77
2020/12/22 02:00:09;;;;;;;13.13;9.40;;;;;;;1.28;93.99;100161.53;1787607;80;25277;-76
2020/12/22 02:02:36;;;;;;;14.03;10.07;;;;;;;1.29;94.04;100161.08;1787443;79;25737;-76
2020/12/22 02:05:04;;;;;;;12.20;8.97;;;;;;;1.28;93.93;100156.80;1787726;80;25194;-77
2020/12/22 02:07:30;;;;;;;12.80;9.07;;;;;;;1.31;93.97;100168.38;1787554;79;25372;-79
2020/12/22 02:09:57;;;;;;;13.17;8.23;;;;;;;1.28;93.91;100161.53;1787363;79;25317;-78
2020/12/22 02:12:24;;;;;;;12.23;8.87;;;;;;;1.32;93.90;100160.14;1787401;79;25257;-76
2020/12/22 02:14:50;;;;;;;11.57;7.70;;;;;;;1.30;93.84;100151.95;1787599;80;25214;-76
2020/12/22 02:17:17;;;;;;;13.03;9.03;;;;;;;1.28;93.84;100139.96;1787505;79;25269;-76
2020/12/22 02:19:44;;;;;;;10.97;8.37;;;;;;;1.28;93.83;100133.02;1787569;79;25134;-76
2020/12/22 02:22:10;;;;;;;10.30;7.37;;;;;;;1.32;93.94;100127.75;1787432;80;25258;-75
2020/12/22 02:24:37;;;;;;;10.23;8.13;;;;;;;1.33;94.01;100118.63;1787645;79;25278;-76
2020/12/22 02:27:04;;;;;;;9.53;7.17;;;;;;;1.37;94.00;100111.61;1787488;79;25272;-77
2020/12/22 02:29:32;;;;;;;10.30;8.07;;;;;;;1.39;94.11;100106.78;1787452;80;25298;-76
2020/12/22 02:31:58;;;;;;;10.80;7.57;;;;;;;1.41;94.33;100109.33;1787561;79;25254;-77
2020/12/22 02:34:26;;;;;;;11.80;8.20;;;;;;;1.44;94.21;100099.70;1787565;79;25313;-76
2020/12/22 02:36:53;;;;;;;10.73;7.73;;;;;;;1.47;94.19;100095.72;1787439;79;25294;-77
2020/12/22 02:39:19;;;;;;;9.90;7.33;;;;;;;1.49;94.14;100098.23;1787526;79;25673;-77
2020/12/22 02:41:46;;;;;;;11.13;7.73;;;;;;;1.53;94.15;100095.96;1787576;79;25277;-77
2020/12/22 02:44:12;;;;;;;9.93;7.40;;;;;;;1.54;94.12;100089.86;1787561;79;25222;-76
2020/12/22 02:46:40;;;;;;;10.13;7.37;;;;;;;1.60;94.18;100079.75;1757220;80;25218;-77
2020/12/22 02:49:06;;;;;;;9.93;7.30;;;;;;;1.62;94.21;100077.95;1789509;78;25257;-77
2020/12/22 02:51:33;;;;;;;10.33;7.60;;;;;;;1.66;94.25;100076.97;1793668;78;25347;-77
2020/12/22 02:54:00;;;;;;;10.23;7.33;;;;;;;1.68;94.21;100076.45;1793632;78;25313;-77
2020/12/22 02:56:27;;;;;;;9.87;7.10;;;;;;;1.71;94.17;100078.95;1793601;80;25154;-77
2020/12/22 02:58:53;;;;;;;10.33;7.27;;;;;;;1.77;94.27;100078.72;1793539;79;25206;-77
2020/12/22 03:01:20;;;;;;;10.57;7.53;;;;;;;1.79;94.19;100061.39;1793201;78;25198;-77
2020/12/22 03:03:46;;;;;;;10.73;7.67;;;;;;;1.84;94.23;100050.40;1793204;78;25316;-77
2020/12/22 03:06:13;;;;;;;10.33;7.37;;;;;;;1.89;94.17;100036.41;1793061;78;25281;-77
2020/12/22 03:08:40;;;;;;;11.67;8.00;;;;;;;1.92;94.13;100024.63;1792970;78;25343;-77
2020/12/22 03:11:07;;;;;;;11.97;8.50;;;;;;;1.93;94.09;100024.58;1793048;78;25305;-77
2020/12/22 03:13:34;;;;;;;11.97;8.33;;;;;;;1.94;94.06;100030.61;1793000;78;25701;-77
2020/12/22 03:16:00;;;;;;;12.77;8.43;;;;;;;1.94;94.03;100033.20;1793144;78;25202;-78
2020/12/22 03:18:27;;;;;;;11.17;8.03;;;;;;;1.96;94.04;100024.91;1792958;80;25730;-77
2020/12/22 03:20:53;;;;;;;11.53;8.03;;;;;;;1.99;94.07;100016.56;1793123;78;25206;-77
2020/12/22 03:23:20;;;;;;;11.07;8.07;;;;;;;2.02;94.06;100010.42;1793045;78;25764;-77
2020/12/22 03:25:47;;;;;;;11.93;8.63;;;;;;;2.03;93.97;100006.48;1792994;78;25205;-78
2020/12/22 03:28:14;;;;;;;11.63;8.30;;;;;;;2.03;93.98;100002.59;1792910;80;25755;-78
2020/12/22 03:30:40;;;;;;;12.37;8.40;;;;;;;2.04;93.92;99996.51;1792991;80;25198;-78
2020/12/22 03:33:07;;;;;;;12.37;8.20;;;;;;;2.03;93.90;99989.61;1792945;78;25256;-78
2020/12/22 03:35:33;;;;;;;9.77;7.33;;;;;;;2.03;93.92;99984.42;1792924;78;25277;-78
2020/12/22 03:38:00;;;;;;;12.57;9.03;;;;;;;2.03;93.93;99983.59;1792893;78;25213;-77
2020/12/22 03:40:27;;;;;;;13.60;9.63;;;;;;;2.05;93.99;99983.08;1792915;78;25342;-78
2020/12/22 03:42:54;;;;;;;12.90;9.60;;;;;;;2.07;93.95;99985.61;1793059;80;25269;-78
2020/12/22 03:45:20;;;;;;;13.00;9.13;;;;;;;2.08;93.96;99994.64;1793091;78;25810;-78
2020/12/22 03:47:47;;;;;;;10.70;8.23;;;;;;;2.10;93.95;99992.83;1792977;79;25627;-78
2020/12/22 03:50:14;;;;;;;13.97;9.17;;;;;;;2.13;93.95;99995.32;1788643;78;25309;-77
2020/12/22 03:52:40;;;;;;;12.13;8.63;;;;;;;2.15;93.94;99988.31;1786827;79;25048;-77
2020/12/22 03:55:07;;;;;;;11.20;8.23;;;;;;;2.18;93.97;99979.59;1786947;79;25704;-76
2020/12/22 03:57:34;;;;;;;12.33;8.77;;;;;;;2.17;93.94;99983.91;1786930;80;25282;-77
2020/12/22 04:00:00;;;;;;;12.00;9.03;;;;;;;2.20;93.87;99982.96;1786841;79;25622;-78
2020/12/22 04:02:27;;;;;;;11.20;7.97;;;;;;;2.19;93.83;99981.26;1786793;80;25269;-78
2020/12/22 04:04:54;;;;;;;12.50;8.53;;;;;;;2.19;93.83;99971.72;1786845;80;25269;-78
2020/12/22 04:07:20;;;;;;;10.00;7.47;;;;;;;2.21;93.82;99977.72;1786950;80;25261;-77
2020/12/22 04:09:47;;;;;;;12.47;9.23;;;;;;;2.24;93.81;99974.14;1786928;79;25217;-77
2020/12/22 04:12:14;;;;;;;12.27;9.00;;;;;;;2.26;93.79;99959.81;1786860;80;25349;-77
2020/12/22 04:14:40;;;;;;;11.97;8.50;;;;;;;2.27;93.80;99959.76;1787019;79;25284;-77
2020/12/22 04:17:07;;;;;;;11.23;8.63;;;;;;;2.30;93.76;99957.05;1786902;79;25273;-77
2020/12/22 04:19:34;;;;;;;13.93;9.37;;;;;;;2.31;93.77;99957.42;1786939;80;25260;-76
2020/12/22 04:22:01;;;;;;;12.57;9.40;;;;;;;2.33;93.76;99945.26;1786856;79;25214;-78
2020/12/22 04:24:28;;;;;;;11.00;8.53;;;;;;;2.33;93.69;99937.47;1786810;79;25741;-77
2020/12/22 04:26:54;;;;;;;12.87;8.60;;;;;;;2.34;93.67;99935.71;1786975;79;25308;-77
2020/12/22 04:29:21;;;;;;;12.83;8.30;;;;;;;2.33;93.66;99919.30;1786801;80;25191;-77
2020/12/22 04:31:47;;;;;;;12.20;8.73;;;;;;;2.34;93.69;99926.63;1786914;80;25247;-76
2020/12/22 04:34:14;;;;;;;14.17;8.90;;;;;;;2.33;93.70;99919.73;1786893;80;25285;-77
2020/12/22 04:36:41;;;;;;;13.00;8.57;;;;;;;2.35;93.65;99913.59;1786868;79;25941;-78
2020/12/22 04:39:07;;;;;;;10.63;8.17;;;;;;;2.35;93.67;99906.27;1786923;79;25270;-77
2020/12/22 04:41:34;;;;;;;11.20;7.90;;;;;;;2.35;93.70;99899.31;1786854;80;25304;-78
2020/12/22 04:44:00;;;;;;;10.47;7.87;;;;;;;2.38;93.67;99903.52;1786793;79;25257;-77
2020/12/22 04:46:27;;;;;;;11.33;7.87;;;;;;;2.37;93.63;99891.00;1786936;79;25333;-77
2020/12/22 04:48:56;;;;;;;10.87;7.53;;;;;;;2.38;93.61;99885.35;1731658;79;25372;-77
2020/12/22 04:51:24;;;;;;;9.77;7.57;;;;;;;2.42;93.53;99885.64;1758668;80;25259;-77
2020/12/22 04:53:51;;;;;;;11.13;8.30;;;;;;;2.46;93.60;99885.05;1758874;80;25709;-77
2020/12/22 04:56:19;;;;;;;11.33;8.13;;;;;;;2.48;93.48;99881.51;1758736;80;25083;-77
2020/12/22 04:58:46;;;;;;;9.77;7.07;;;;;;;2.51;93.40;99882.66;1758686;80;25235;-77
2020/12/22 05:01:13;;;;;;;9.97;7.20;;;;;;;2.54;93.40;99887.73;1758590;80;25145;-77
2020/12/22 05:03:40;;;;;;;9.60;7.30;;;;;;;2.58;93.27;99883.25;1758777;81;25212;-77
2020/12/22 05:06:07;;;;;;;11.20;7.70;;;;;;;2.59;93.25;99879.30;1758824;80;25303;-77
2020/12/22 05:08:33;;;;;;;9.60;7.30;;;;;;;2.63;93.24;99877.88;1758833;81;25224;-77
2020/12/22 05:11:00;;;;;;;8.67;7.10;;;;;;;2.64;93.21;99867.90;1758714;81;25170;-77
2020/12/22 05:13:26;;;;;;;9.47;7.47;;;;;;;2.68;93.11;99869.02;1758585;80;25721;-78
2020/12/22 05:15:53;;;;;;;9.27;7.00;;;;;;;2.72;93.04;99867.12;1758708;81;25215;-78
2020/12/22 05:18:25;;;;;;;10.90;7.57;;;;;;;2.73;92.95;99859.71;1758654;81;25498;-77
2020/12/22 05:20:53;;;;;;;9.33;7.70;;;;;;;2.76;92.93;99856.98;1758698;81;25251;-77
2020/12/22 05:23:21;;;;;;;9.57;7.20;;;;;;;2.77;92.92;99846.54;1758667;80;25227;-78
2020/12/22 05:25:50;;;;;;;9.07;6.50;;;;;;;2.82;92.82;99846.35;1758686;81;25199;-77
2020/12/22 05:28:19;;;;;;;8.20;6.70;;;;;;;2.87;92.64;99836.61;1731536;81;25303;-76
2020/12/22 05:30:49;;;;;;;8.93;7.07;;;;;;;2.88;92.63;99837.02;1758704;81;25292;-76
2020/12/22 05:33:16;;;;;;;9.90;7.27;;;;;;;2.91;92.46;99825.16;1758121;81;25607;-76
2020/12/22 05:35:46;;;;;;;9.67;6.93;;;;;;;2.93;92.37;99823.36;1758672;81;25211;-76
2020/12/22 05:38:14;;;;;;;7.77;6.20;;;;;;;2.96;92.30;99811.98;1758647;80;25508;-77
2020/12/22 05:40:42;;;;;;;8.00;6.10;;;;;;;2.96;92.15;99812.81;1758831;81;25200;-77
2020/12/22 05:43:10;;;;;;;8.77;6.63;;;;;;;3.01;92.00;99816.98;1758717;81;25314;-77
2020/12/22 05:45:39;;;;;;;8.33;6.57;;;;;;;3.03;92.14;99816.45;1758794;80;25314;-77
2020/12/22 05:48:09;;;;;;;9.03;7.23;;;;;;;3.08;91.73;99804.94;1758655;81;25303;-76
2020/12/22 05:50:35;;;;;;;8.37;6.47;;;;;;;3.12;91.84;99801.78;1778137;78;25300;-77
2020/12/22 05:53:02;;;;;;;9.60;6.77;;;;;;;3.13;91.66;99802.14;1769005;79;25747;-76
2020/12/22 05:55:30;;;;;;;8.40;6.27;;;;;;;3.13;91.69;99787.42;1795830;79;25287;-77
2020/12/22 05:58:12;;;;;;;8.57;6.47;;;;;;;3.15;91.61;99779.09;1795712;79;25114;-76
2020/12/22 06:00:41;;;;;;;8.97;6.03;;;;;;;3.15;91.67;99776.92;1795867;78;25273;-77
2020/12/22 06:03:13;;;;;;;8.80;6.50;;;;;;;3.15;91.32;99778.22;1795596;78;25296;-77
2020/12/22 06:05:43;;;;;;;8.90;7.03;;;;;;;3.17;91.36;99772.53;1795733;78;25774;-77
2020/12/22 06:10:53;;;;;;;19.60;12.50;;;;;;;3.25;91.20;99767.83;1811958;77;26828;-76
2020/12/22 06:13:20;;;;;;;11.67;8.70;;;;;;;3.20;91.24;99769.80;1783465;80;25201;-76
2020/12/22 06:15:46;;;;;;;10.00;7.73;;;;;;;3.21;91.14;99767.56;1728680;80;25373;-76
2020/12/22 06:18:13;;;;;;;8.03;6.73;;;;;;;3.21;91.20;99762.36;1783189;79;25305;-77
2020/12/22 06:20:40;;;;;;;8.57;6.73;;;;;;;3.25;90.94;99752.67;1783428;79;25325;-77
2020/12/22 06:23:07;;;;;;;10.80;7.90;;;;;;;3.27;90.85;99750.86;1783431;79;25151;-76
2020/12/22 06:25:35;;;;;;;9.00;6.83;;;;;;;3.26;90.95;99758.27;1783493;79;25201;-77
2020/12/22 06:28:02;;;;;;;10.20;7.90;;;;;;;3.30;90.84;99745.50;1783417;79;25281;-77
2020/12/22 06:30:38;;;;;;;8.87;6.73;;;;;;;3.34;90.50;99737.50;1783315;80;25258;-77
2020/12/22 06:33:26;;;;;;;9.50;7.60;;;;;;;3.36;90.52;99731.40;1783392;80;25289;-77
2020/12/22 06:36:03;;;;;;;9.17;6.60;;;;;;;3.38;90.42;99725.66;1783339;79;25230;-76
2020/12/22 06:38:56;;;;;;;10.07;7.30;;;;;;;3.41;90.10;99711.22;1783457;79;25195;-77
2020/12/22 06:41:31;;;;;;;8.23;6.30;;;;;;;3.46;89.73;99710.08;1783473;79;25625;-76
2020/12/22 06:43:58;;;;;;;8.40;6.47;;;;;;;3.51;89.09;99721.11;1783440;79;25250;-77
2020/12/22 06:46:37;;;;;;;8.63;6.97;;;;;;;3.50;89.09;99716.84;1728311;80;25222;-77
2020/12/22 06:49:05;;;;;;;8.50;6.60;;;;;;;3.61;88.62;99710.29;1783515;79;25278;-76
2020/12/22 06:51:34;;;;;;;11.97;8.03;;;;;;;3.60;88.40;99722.89;1759905;80;25279;-76
2020/12/22 06:54:01;;;;;;;11.03;8.00;;;;;;;3.55;88.18;99720.97;1752326;81;25323;-75
2020/12/22 06:56:54;;;;;;;9.23;7.30;;;;;;;3.61;88.13;99720.22;1752372;80;25288;-75
2020/12/22 06:59:44;;;;;;;8.00;6.13;;;;;;;3.62;88.06;99723.22;1703525;80;25485;-77
2020/12/22 07:02:37;;;;;;;9.63;7.17;;;;;;;3.61;88.09;99724.13;1752445;80;25131;-77
2020/12/22 07:05:05;;;;;;;8.70;6.03;;;;;;;3.62;88.08;99715.42;1752663;80;25328;-78
2020/12/22 07:07:55;;;;;;;8.70;6.90;;;;;;;3.61;88.40;99711.12;1752462;81;25070;-77
2020/12/22 07:10:22;;;;;;;8.60;6.67;;;;;;;3.61;88.49;99708.98;1752377;80;25572;-77
2020/12/22 07:12:50;;;;;;;11.13;7.80;;;;;;;3.59;88.83;99708.22;1752414;80;25626;-76
2020/12/22 07:15:19;;;;;;;9.17;7.13;;;;;;;3.58;89.14;99706.06;1752637;81;25450;-76
2020/12/22 07:17:46;;;;;;;12.43;7.80;;;;;;;3.58;89.40;99703.45;1699314;81;25281;-77
2020/12/22 07:20:13;;;;;;;8.07;6.20;;;;;;;3.61;89.33;99702.02;1752234;80;25715;-78
2020/12/22 07:22:40;;;;;;;8.53;6.33;;;;;;;3.61;89.67;99703.31;1722667;81;25316;-78
2020/12/22 07:25:06;;;;;;;11.90;6.83;;;;;;;3.60;89.70;99706.82;1751733;80;25138;-78
2020/12/22 07:27:33;;;;;;;8.93;7.37;;;;;;;3.61;89.80;99705.92;1751844;80;25209;-78
2020/12/22 07:30:00;;;;;;;8.90;6.77;;;;;;;3.64;89.81;99707.08;1751864;80;25137;-78
2020/12/22 07:32:26;;;;;;;8.47;6.63;;;;;;;3.65;89.91;99717.02;1751852;81;25224;-78
2020/12/22 07:34:53;;;;;;;10.33;7.40;;;;;;;3.64;90.16;99708.38;1751858;80;25551;-78
2020/12/22 07:37:20;;;;;;;12.37;7.77;;;;;;;3.63;90.15;99707.98;1751818;81;25159;-76
2020/12/22 07:39:47;;;;;;;10.37;8.07;;;;;;;3.62;90.34;99710.66;1751942;81;25344;-79
2020/12/22 07:42:18;;;;;;;9.57;6.97;;;;;;;3.63;90.57;99705.38;1751864;80;25299;-77
2020/12/22 07:44:47;;;;;;;9.73;7.23;;;;;;;3.60;91.02;99708.59;1751978;80;25125;-79
2020/12/22 07:47:17;;;;;;;10.83;7.07;;;;;;;3.65;90.75;99698.38;1723417;81;25632;-78
2020/12/22 07:49:44;;;;;;;8.53;7.10;;;;;;;3.61;90.93;99697.28;1751964;80;25378;-78
2020/12/22 07:52:16;;;;;;;10.07;7.30;;;;;;;3.58;91.42;99700.02;1751907;81;25802;-79
2020/12/22 07:54:44;;;;;;;9.67;7.27;;;;;;;3.57;91.70;99695.29;1751877;80;25671;-79
2020/12/22 07:57:10;;;;;;;8.93;7.27;;;;;;;3.63;91.44;99686.34;1751957;80;25224;-79
2020/12/22 07:59:37;;;;;;;8.90;6.50;;;;;;;3.59;91.66;99684.34;1751960;81;25276;-77
2020/12/22 08:02:04;;;;;;;10.20;7.33;;;;;;;3.59;91.72;99675.71;1751782;81;25062;-76
2020/12/22 08:04:30;;;;;;;10.00;7.63;;;;;;;3.63;91.91;99678.53;1751998;80;25158;-78
2020/12/22 08:07:01;;;;;;;8.20;6.33;;;;;;;3.59;92.04;99670.05;1751920;81;25208;-78
2020/12/22 08:09:34;;;;;;;9.60;6.73;;;;;;;3.56;92.26;99666.28;1751767;80;25458;-78
2020/12/22 08:12:03;;;;;;;8.80;7.03;;;;;;;3.55;92.37;99660.69;1751839;81;25224;-78
2020/12/22 08:14:36;;;;;;;9.37;7.37;;;;;;;3.54;92.45;99665.52;1751900;80;25205;-79
2020/12/22 08:17:07;;;;;;;11.70;7.77;;;;;;;3.57;92.63;99672.31;1751924;80;25552;-77
2020/12/22 08:19:40;;;;;;;9.93;7.77;;;;;;;3.52;92.77;99666.06;1751996;81;25213;-77
2020/12/22 08:22:07;;;;;;;10.23;8.00;;;;;;;3.50;92.80;99666.13;1751617;80;25797;-78
2020/12/22 08:24:34;;;;;;;10.00;7.50;;;;;;;3.54;93.04;99670.73;1751818;80;25233;-78
2020/12/22 08:27:01;;;;;;;9.73;7.50;;;;;;;3.51;93.27;99661.77;1751740;80;25075;-79
2020/12/22 08:29:28;;;;;;;10.17;7.97;;;;;;;3.53;93.62;99663.83;1751759;81;25295;-78
2020/12/22 08:31:57;;;;;;;9.73;6.97;;;;;;;3.52;93.67;99658.27;1751850;81;25378;-77
2020/12/22 08:34:25;;;;;;;10.87;8.33;;;;;;;3.58;93.64;99658.41;1751973;80;25363;-77
2020/12/22 08:36:51;;;;;;;11.03;8.63;;;;;;;3.64;93.76;99666.77;1722515;80;25663;-78
2020/12/22 08:39:25;;;;;;;11.50;8.67;;;;;;;3.69;93.74;99656.97;1752097;80;25202;-78
2020/12/22 08:41:57;;;;;;;11.50;8.67;;;;;;;3.64;93.93;99656.83;1751961;81;25802;-77
2020/12/22 08:44:26;;;;;;;10.73;8.83;;;;;;;3.62;94.18;99654.30;1752041;80;25299;-78
2020/12/22 08:46:54;;;;;;;10.93;8.30;;;;;;;3.73;94.02;99649.02;1723218;81;25295;-78
2020/12/22 08:52:16;;;;;;;12.23;9.03;;;;;;;3.77;94.51;99634.94;1885261;76;26823;-77
2020/12/22 08:54:44;;;;;;;10.60;8.33;;;;;;;3.80;94.50;99639.52;1855887;77;25303;-77
2020/12/22 08:59:55;;;;;;;9.77;7.53;;;;;;;3.90;94.55;99658.13;1817299;77;27450;-77
2020/12/22 09:02:26;;;;;;;9.40;7.40;;;;;;;3.87;94.51;99658.28;1788421;80;25731;-78
2020/12/22 09:04:52;;;;;;;11.20;8.00;;;;;;;3.95;94.48;99654.00;1788472;80;25639;-77
2020/12/22 09:07:19;;;;;;;10.30;8.00;;;;;;;3.96;94.50;99649.20;1788459;79;25834;-78
2020/12/22 09:09:46;;;;;;;11.17;8.13;;;;;;;3.98;94.70;99640.38;1724434;80;25110;-79
2020/12/22 09:12:13;;;;;;;11.00;8.70;;;;;;;4.08;94.49;99645.50;1788426;80;25209;-78
2020/12/22 09:14:45;;;;;;;15.50;9.20;;;;;;;4.12;94.55;99640.14;1788396;79;25268;-78
2020/12/22 09:17:13;;;;;;;11.50;7.83;;;;;;;4.14;94.70;99653.91;1788449;80;25291;-78
2020/12/22 09:19:47;;;;;;;12.27;8.67;;;;;;;4.29;94.55;99634.94;1788256;79;25691;-77
2020/12/22 09:22:15;;;;;;;9.60;6.93;;;;;;;4.29;94.54;99642.74;1788420;80;25332;-77
2020/12/22 09:24:42;;;;;;;12.87;9.10;;;;;;;4.36;94.34;99646.70;1788334;79;25683;-78
2020/12/22 09:27:11;;;;;;;14.27;9.17;;;;;;;4.38;94.41;99646.16;1788478;80;25185;-79
2020/12/22 09:29:41;;;;;;;15.50;9.97;;;;;;;4.41;94.33;99636.06;1788354;79;25161;-77
2020/12/22 09:32:11;;;;;;;15.63;9.30;;;;;;;4.42;94.35;99626.00;1788306;80;25295;-78
2020/12/22 09:34:39;;;;;;;16.13;10.67;;;;;;;4.45;94.16;99627.15;1788408;80;25310;-78
2020/12/22 09:37:07;;;;;;;18.97;10.40;;;;;;;4.41;94.17;99618.66;1788344;80;25250;-78
2020/12/22 09:39:36;;;;;;;18.07;10.70;;;;;;;4.42;94.22;99619.05;1753940;81;25703;-78
2020/12/22 09:42:04;;;;;;;17.40;10.53;;;;;;;4.53;93.89;99609.83;1753722;81;25663;-77
2020/12/22 09:44:34;;;;;;;11.77;6.87;;;;;;;4.46;94.22;99595.82;1722165;82;25746;-77
2020/12/22 09:47:00;;;;;;;9.83;6.50;;;;;;;4.63;93.95;99592.78;1754120;80;25202;-78
2020/12/22 09:49:28;;;;;;;17.00;7.87;;;;;;;4.61;93.84;99592.86;1756784;81;25288;-76
2020/12/22 09:51:55;;;;;;;10.67;7.93;;;;;;;4.71;93.68;99584.54;1697353;83;25735;-77
2020/12/22 09:54:22;;;;;;;10.90;7.97;;;;;;;4.69;93.79;99592.44;1695378;83;25713;-79
2020/12/22 09:56:49;;;;;;;11.13;8.57;;;;;;;4.73;93.70;99578.34;1723546;82;25184;-77
2020/12/22 09:59:17;;;;;;;18.83;15.13;;;;;;;4.72;93.83;99576.64;1723612;83;25271;-77
2020/12/22 10:01:45;;;;;;;10.90;8.03;;;;;;;4.63;93.99;99571.47;1723834;83;25613;-77
2020/12/22 10:04:13;;;;;;;11.10;9.17;;;;;;;4.63;94.09;99562.35;1723664;83;25220;-77
2020/12/22 10:06:40;;;;;;;13.40;10.43;;;;;;;4.70;94.01;99559.42;1723688;83;25726;-77
2020/12/22 10:09:07;;;;;;;12.30;9.37;;;;;;;4.68;94.05;99572.53;1723564;82;25725;-78
2020/12/22 10:11:35;;;;;;;14.13;11.13;;;;;;;4.60;94.23;99564.29;1723184;83;25347;-77
2020/12/22 10:14:03;;;;;;;22.63;15.30;;;;;;;4.60;94.21;99565.59;1723210;82;25224;-78
2020/12/22 10:16:30;;;;;;;18.47;13.70;;;;;;;4.61;94.34;99559.47;1723110;83;25367;-77
2020/12/22 10:18:57;;;;;;;17.73;12.53;;;;;;;4.67;94.35;99563.02;1723060;82;25821;-77
2020/12/22 10:21:24;;;;;;;13.23;11.60;;;;;;;4.66;94.56;99544.43;1723159;82;25227;-77
2020/12/22 10:23:51;;;;;;;13.53;11.47;;;;;;;4.74;94.40;99549.20;1718735;83;25298;-77
2020/12/22 10:26:20;;;;;;;17.07;15.17;;;;;;;4.66;94.72;99536.61;1723204;82;25342;-77
2020/12/22 10:28:48;;;;;;;20.37;18.27;;;;;;;4.63;94.70;99531.56;1723192;82;25343;-78
2020/12/22 10:31:18;;;;;;;21.80;19.30;;;;;;;4.62;94.91;99535.08;1723325;82;25220;-78
2020/12/22 10:33:47;;;;;;;22.40;17.87;;;;;;;4.65;95.06;99526.63;1723177;82;25362;-77
2020/12/22 10:36:15;;;;;;;16.67;12.47;;;;;;;4.70;95.08;99525.09;1723286;82;25264;-78
2020/12/22 10:38:42;;;;;;;16.83;11.50;;;;;;;4.74;95.29;99524.01;1723377;82;25310;-78
2020/12/22 10:41:09;;;;;;;18.43;11.03;;;;;;;4.69;95.37;99528.60;1723102;82;25757;-77
2020/12/22 10:43:35;;;;;;;12.87;8.97;;;;;;;4.72;95.72;99527.14;1723209;82;25260;-78
2020/12/22 10:46:02;;;;;;;10.20;7.50;;;;;;;4.69;95.81;99519.48;1723152;83;25655;-77
2020/12/22 10:48:31;;;;;;;12.83;9.03;;;;;;;4.76;95.87;99522.15;1723382;82;25328;-77
2020/12/22 10:50:58;;;;;;;9.53;7.67;;;;;;;4.69;96.15;99516.88;1723369;81;25392;-78
2020/12/22 10:53:25;;;;;;;9.77;7.90;;;;;;;4.74;96.34;99527.92;1723275;83;25295;-79
2020/12/22 10:55:55;;;;;;;10.73;7.73;;;;;;;4.78;96.40;99522.90;1723196;82;25299;-79
2020/12/22 10:58:22;;;;;;;9.70;7.63;;;;;;;4.81;96.56;99515.39;1695911;82;25319;-77
2020/12/22 11:00:49;;;;;;;10.27;6.80;;;;;;;4.80;96.72;99517.61;1731618;81;25752;-76
2020/12/22 11:03:22;;;;;;;12.00;8.27;;;;;;;4.87;96.85;99511.59;1731514;81;25303;-77
2020/12/22 11:06:08;;;;;;;14.90;9.70;;;;;;;4.86;97.10;99512.50;1731706;82;25418;-78
2020/12/22 11:08:32;;;;;;;9.50;6.40;;;;;;;4.88;96.99;99507.60;1706337;82;25599;-79
2020/12/22 11:10:59;;;;;;;8.37;5.97;;;;;;;4.98;97.39;99498.33;1731763;81;25639;-78
2020/12/22 11:13:26;;;;;;;7.03;5.00;;;;;;;5.01;97.20;99498.61;1731257;81;25097;-78
2020/12/22 11:15:53;;;;;;;7.10;4.90;;;;;;;5.08;97.35;99489.53;1706787;82;25725;-78
2020/12/22 11:18:20;;;;;;;6.07;4.63;;;;;;;5.13;97.55;99485.37;1731495;81;25318;-77
2020/12/22 11:20:51;;;;;;;5.50;4.30;;;;;;;5.17;97.82;99487.69;1731522;81;25398;-77
2020/12/22 11:23:18;;;;;;;5.20;4.57;;;;;;;5.19;97.72;99480.64;1730922;82;25318;-78
2020/12/22 11:25:45;;;;;;;6.77;4.53;;;;;;;5.29;97.95;99478.78;1731312;81;25169;-76
2020/12/22 11:28:11;;;;;;;8.73;5.80;;;;;;;5.37;98.06;99470.88;1731413;81;25323;-77
2020/12/22 11:30:38;;;;;;;10.13;6.50;;;;;;;5.48;97.76;99470.27;1731516;81;25341;-77
2020/12/22 11:33:05;;;;;;;8.37;5.13;;;;;;;5.54;97.61;99466.45;1731404;81;25228;-77
2020/12/22 11:35:32;;;;;;;5.90;4.40;;;;;;;5.55;97.65;99465.05;1731469;82;25713;-77
2020/12/22 11:37:59;;;;;;;3.60;3.30;;;;;;;5.56;97.58;99466.75;1731397;82;25347;-77
2020/12/22 11:40:25;;;;;;;3.73;3.00;;;;;;;5.66;97.36;99459.66;1731506;81;25610;-78
2020/12/22 11:42:53;;;;;;;3.40;2.90;;;;;;;5.71;97.23;99466.74;1731361;82;25756;-77
2020/12/22 11:45:20;;;;;;;5.40;3.97;;;;;;;5.74;97.15;99456.12;1731574;81;25452;-76